sensor_id;sensor_type;location;lat;lon;timestamp;P1;durP1;ratioP1;P2;durP2;ratioP2
25946;SDS011;13745;51.470;9.894;2022-10-19T00:01:08;6.72;;;4.68;;
25946;SDS011;13745;51.470;9.894;2022-10-19T00:03:56;7.68;;;4.30;;
25946;SDS011;13745;51.470;9.894;2022-10-19T00:06:43;8.10;;;4.55;;
25946;SDS011;13745;51.470;9.894;2022-10-19T00:09:29;9.50;;;3.25;;
25946;SDS011;13745;51.470;9.894;2022-10-19T00:12:15;5.30;;;2.58;;
25946;SDS011;13745;51.470;9.894;2022-10-19T00:15:03;6.72;;;2.90;;
25946;SDS011;13745;51.470;9.894;2022-10-19T00:17:50;4.95;;;2.63;;
25946;SDS011;13745;51.470;9.894;2022-10-19T00:20:36;3.97;;;2.58;;
25946;SDS011;13745;51.470;9.894;2022-10-19T00:23:22;7.03;;;3.65;;
25946;SDS011;13745;51.470;9.894;2022-10-19T00:26:08;7.93;;;3.92;;
25946;SDS011;13745;51.470;9.894;2022-10-19T00:28:54;8.68;;;4.20;;
25946;SDS011;13745;51.470;9.894;2022-10-19T00:31:42;5.28;;;3.72;;
25946;SDS011;13745;51.470;9.894;2022-10-19T00:34:27;8.75;;;3.80;;
25946;SDS011;13745;51.470;9.894;2022-10-19T00:37:13;11.70;;;4.30;;
25946;SDS011;13745;51.470;9.894;2022-10-19T00:39:59;4.65;;;3.70;;
25946;SDS011;13745;51.470;9.894;2022-10-19T00:42:45;6.40;;;4.13;;
25946;SDS011;13745;51.470;9.894;2022-10-19T00:45:31;7.25;;;3.60;;
25946;SDS011;13745;51.470;9.894;2022-10-19T00:48:19;9.75;;;4.00;;
25946;SDS011;13745;51.470;9.894;2022-10-19T00:51:10;7.32;;;3.30;;
25946;SDS011;13745;51.470;9.894;2022-10-19T00:53:56;7.75;;;4.28;;
25946;SDS011;13745;51.470;9.894;2022-10-19T00:56:42;10.23;;;4.90;;
25946;SDS011;13745;51.470;9.894;2022-10-19T00:59:30;10.77;;;4.70;;
25946;SDS011;13745;51.470;9.894;2022-10-19T01:02:17;12.35;;;4.30;;
25946;SDS011;13745;51.470;9.894;2022-10-19T01:05:04;8.15;;;4.47;;
25946;SDS011;13745;51.470;9.894;2022-10-19T01:07:52;7.32;;;4.32;;
25946;SDS011;13745;51.470;9.894;2022-10-19T01:10:41;5.60;;;3.88;;
25946;SDS011;13745;51.470;9.894;2022-10-19T01:13:35;5.85;;;3.38;;
25946;SDS011;13745;51.470;9.894;2022-10-19T01:16:33;9.27;;;4.32;;
25946;SDS011;13745;51.470;9.894;2022-10-19T01:22:51;15.70;;;6.03;;
25946;SDS011;13745;51.470;9.894;2022-10-19T01:25:48;6.07;;;3.35;;
25946;SDS011;13745;51.470;9.894;2022-10-19T01:28:43;6.97;;;3.80;;
25946;SDS011;13745;51.470;9.894;2022-10-19T01:31:36;10.70;;;3.30;;
25946;SDS011;13745;51.470;9.894;2022-10-19T01:34:31;12.63;;;4.35;;
25946;SDS011;13745;51.470;9.894;2022-10-19T01:37:20;11.52;;;4.10;;
25946;SDS011;13745;51.470;9.894;2022-10-19T01:40:17;5.22;;;3.60;;
25946;SDS011;13745;51.470;9.894;2022-10-19T01:43:15;8.75;;;4.25;;
25946;SDS011;13745;51.470;9.894;2022-10-19T01:46:08;5.45;;;3.67;;
25946;SDS011;13745;51.470;9.894;2022-10-19T01:49:03;3.42;;;2.50;;
25946;SDS011;13745;51.470;9.894;2022-10-19T01:51:55;4.82;;;2.08;;
25946;SDS011;13745;51.470;9.894;2022-10-19T01:54:46;5.72;;;2.63;;
25946;SDS011;13745;51.470;9.894;2022-10-19T01:57:36;5.30;;;2.83;;
25946;SDS011;13745;51.470;9.894;2022-10-19T02:00:26;3.83;;;2.83;;
25946;SDS011;13745;51.470;9.894;2022-10-19T02:03:13;2.80;;;2.60;;
25946;SDS011;13745;51.470;9.894;2022-10-19T02:06:02;5.53;;;3.35;;
25946;SDS011;13745;51.470;9.894;2022-10-19T02:08:51;5.82;;;3.10;;
25946;SDS011;13745;51.470;9.894;2022-10-19T02:11:38;3.72;;;2.95;;
25946;SDS011;13745;51.470;9.894;2022-10-19T02:14:24;6.22;;;2.97;;
25946;SDS011;13745;51.470;9.894;2022-10-19T02:17:16;4.10;;;3.70;;
25946;SDS011;13745;51.470;9.894;2022-10-19T02:20:06;3.40;;;2.83;;
25946;SDS011;13745;51.470;9.894;2022-10-19T02:22:53;6.00;;;2.90;;
25946;SDS011;13745;51.470;9.894;2022-10-19T02:25:39;4.50;;;2.90;;
25946;SDS011;13745;51.470;9.894;2022-10-19T02:28:25;5.25;;;3.58;;
25946;SDS011;13745;51.470;9.894;2022-10-19T02:31:13;6.68;;;3.10;;
25946;SDS011;13745;51.470;9.894;2022-10-19T02:33:59;4.47;;;3.00;;
25946;SDS011;13745;51.470;9.894;2022-10-19T02:36:44;5.28;;;2.55;;
25946;SDS011;13745;51.470;9.894;2022-10-19T02:39:32;3.70;;;3.15;;
25946;SDS011;13745;51.470;9.894;2022-10-19T02:42:19;4.18;;;2.80;;
25946;SDS011;13745;51.470;9.894;2022-10-19T02:45:09;3.88;;;3.20;;
25946;SDS011;13745;51.470;9.894;2022-10-19T02:48:03;4.40;;;3.00;;
25946;SDS011;13745;51.470;9.894;2022-10-19T02:50:53;3.15;;;2.75;;
25946;SDS011;13745;51.470;9.894;2022-10-19T02:53:38;7.75;;;2.90;;
25946;SDS011;13745;51.470;9.894;2022-10-19T02:56:25;3.95;;;3.25;;
25946;SDS011;13745;51.470;9.894;2022-10-19T02:59:11;3.70;;;2.90;;
25946;SDS011;13745;51.470;9.894;2022-10-19T03:01:57;4.05;;;3.08;;
25946;SDS011;13745;51.470;9.894;2022-10-19T03:04:43;3.45;;;2.95;;
25946;SDS011;13745;51.470;9.894;2022-10-19T03:07:29;3.08;;;2.78;;
25946;SDS011;13745;51.470;9.894;2022-10-19T03:10:15;4.20;;;3.10;;
25946;SDS011;13745;51.470;9.894;2022-10-19T03:13:02;7.63;;;3.83;;
25946;SDS011;13745;51.470;9.894;2022-10-19T03:15:48;5.90;;;3.88;;
25946;SDS011;13745;51.470;9.894;2022-10-19T03:18:34;3.97;;;3.55;;
25946;SDS011;13745;51.470;9.894;2022-10-19T03:21:20;4.22;;;3.50;;
25946;SDS011;13745;51.470;9.894;2022-10-19T03:24:06;3.33;;;3.00;;
25946;SDS011;13745;51.470;9.894;2022-10-19T03:26:52;4.03;;;3.22;;
25946;SDS011;13745;51.470;9.894;2022-10-19T03:29:39;3.88;;;2.85;;
25946;SDS011;13745;51.470;9.894;2022-10-19T03:32:24;9.68;;;3.10;;
25946;SDS011;13745;51.470;9.894;2022-10-19T03:35:10;6.40;;;3.10;;
25946;SDS011;13745;51.470;9.894;2022-10-19T03:37:56;3.80;;;3.10;;
25946;SDS011;13745;51.470;9.894;2022-10-19T03:40:42;5.20;;;3.20;;
25946;SDS011;13745;51.470;9.894;2022-10-19T03:43:28;3.95;;;3.22;;
25946;SDS011;13745;51.470;9.894;2022-10-19T03:46:15;4.25;;;3.50;;
25946;SDS011;13745;51.470;9.894;2022-10-19T03:49:01;4.20;;;3.38;;
25946;SDS011;13745;51.470;9.894;2022-10-19T03:51:47;3.40;;;3.10;;
25946;SDS011;13745;51.470;9.894;2022-10-19T03:54:33;3.50;;;3.20;;
25946;SDS011;13745;51.470;9.894;2022-10-19T03:57:19;8.10;;;3.28;;
25946;SDS011;13745;51.470;9.894;2022-10-19T04:00:05;4.07;;;3.33;;
25946;SDS011;13745;51.470;9.894;2022-10-19T04:02:57;5.40;;;3.83;;
25946;SDS011;13745;51.470;9.894;2022-10-19T04:05:43;4.03;;;3.60;;
25946;SDS011;13745;51.470;9.894;2022-10-19T04:08:29;4.72;;;3.70;;
25946;SDS011;13745;51.470;9.894;2022-10-19T04:11:15;3.80;;;3.30;;
25946;SDS011;13745;51.470;9.894;2022-10-19T04:14:03;4.57;;;3.00;;
25946;SDS011;13745;51.470;9.894;2022-10-19T04:16:49;4.90;;;3.35;;
25946;SDS011;13745;51.470;9.894;2022-10-19T04:19:36;3.88;;;3.22;;
25946;SDS011;13745;51.470;9.894;2022-10-19T04:22:22;5.65;;;3.08;;
25946;SDS011;13745;51.470;9.894;2022-10-19T04:25:08;3.58;;;3.28;;
25946;SDS011;13745;51.470;9.894;2022-10-19T04:27:55;4.10;;;3.00;;
25946;SDS011;13745;51.470;9.894;2022-10-19T04:30:41;5.38;;;4.13;;
25946;SDS011;13745;51.470;9.894;2022-10-19T04:33:27;3.90;;;3.60;;
25946;SDS011;13745;51.470;9.894;2022-10-19T04:36:14;3.80;;;3.50;;
25946;SDS011;13745;51.470;9.894;2022-10-19T04:39:00;4.25;;;3.85;;
25946;SDS011;13745;51.470;9.894;2022-10-19T04:41:46;4.88;;;3.90;;
25946;SDS011;13745;51.470;9.894;2022-10-19T04:44:31;5.20;;;4.20;;
25946;SDS011;13745;51.470;9.894;2022-10-19T04:47:17;4.05;;;3.30;;
25946;SDS011;13745;51.470;9.894;2022-10-19T04:50:04;4.05;;;3.65;;
25946;SDS011;13745;51.470;9.894;2022-10-19T04:52:51;5.32;;;4.13;;
25946;SDS011;13745;51.470;9.894;2022-10-19T04:55:39;7.20;;;3.80;;
25946;SDS011;13745;51.470;9.894;2022-10-19T04:58:24;4.18;;;3.78;;
25946;SDS011;13745;51.470;9.894;2022-10-19T05:01:12;12.73;;;9.75;;
25946;SDS011;13745;51.470;9.894;2022-10-19T05:03:59;14.60;;;8.32;;
25946;SDS011;13745;51.470;9.894;2022-10-19T05:06:47;9.98;;;6.35;;
25946;SDS011;13745;51.470;9.894;2022-10-19T05:09:34;6.65;;;4.65;;
25946;SDS011;13745;51.470;9.894;2022-10-19T05:12:19;6.28;;;3.75;;
25946;SDS011;13745;51.470;9.894;2022-10-19T05:15:06;7.00;;;4.55;;
25946;SDS011;13745;51.470;9.894;2022-10-19T05:17:52;4.50;;;3.95;;
25946;SDS011;13745;51.470;9.894;2022-10-19T05:20:38;4.35;;;3.95;;
25946;SDS011;13745;51.470;9.894;2022-10-19T05:23:24;7.47;;;4.00;;
25946;SDS011;13745;51.470;9.894;2022-10-19T05:26:12;4.28;;;3.80;;
25946;SDS011;13745;51.470;9.894;2022-10-19T05:29:00;4.13;;;3.70;;
25946;SDS011;13745;51.470;9.894;2022-10-19T05:31:47;3.80;;;3.28;;
25946;SDS011;13745;51.470;9.894;2022-10-19T05:34:33;6.65;;;3.67;;
25946;SDS011;13745;51.470;9.894;2022-10-19T05:37:19;4.35;;;3.45;;
25946;SDS011;13745;51.470;9.894;2022-10-19T05:40:06;4.13;;;3.72;;
25946;SDS011;13745;51.470;9.894;2022-10-19T05:42:54;5.30;;;3.88;;
25946;SDS011;13745;51.470;9.894;2022-10-19T05:45:39;5.88;;;3.83;;
25946;SDS011;13745;51.470;9.894;2022-10-19T05:48:25;5.18;;;3.65;;
25946;SDS011;13745;51.470;9.894;2022-10-19T05:51:17;6.20;;;3.65;;
25946;SDS011;13745;51.470;9.894;2022-10-19T05:54:04;4.88;;;3.90;;
25946;SDS011;13745;51.470;9.894;2022-10-19T05:56:49;4.00;;;3.58;;
25946;SDS011;13745;51.470;9.894;2022-10-19T05:59:37;6.03;;;5.43;;
25946;SDS011;13745;51.470;9.894;2022-10-19T06:02:22;5.45;;;4.47;;
25946;SDS011;13745;51.470;9.894;2022-10-19T06:05:08;6.95;;;4.25;;
25946;SDS011;13745;51.470;9.894;2022-10-19T06:07:54;5.22;;;4.43;;
25946;SDS011;13745;51.470;9.894;2022-10-19T06:10:40;7.18;;;4.85;;
25946;SDS011;13745;51.470;9.894;2022-10-19T06:13:26;6.90;;;4.30;;
25946;SDS011;13745;51.470;9.894;2022-10-19T06:16:14;11.60;;;4.90;;
25946;SDS011;13745;51.470;9.894;2022-10-19T06:19:00;8.43;;;4.45;;
25946;SDS011;13745;51.470;9.894;2022-10-19T06:21:46;9.02;;;5.03;;
25946;SDS011;13745;51.470;9.894;2022-10-19T06:24:32;4.40;;;4.00;;
25946;SDS011;13745;51.470;9.894;2022-10-19T06:27:18;5.65;;;4.50;;
25946;SDS011;13745;51.470;9.894;2022-10-19T06:30:04;4.68;;;4.15;;
25946;SDS011;13745;51.470;9.894;2022-10-19T06:32:52;7.38;;;3.92;;
25946;SDS011;13745;51.470;9.894;2022-10-19T06:35:38;5.80;;;4.25;;
25946;SDS011;13745;51.470;9.894;2022-10-19T06:38:25;5.47;;;4.50;;
25946;SDS011;13745;51.470;9.894;2022-10-19T06:41:11;8.70;;;4.32;;
25946;SDS011;13745;51.470;9.894;2022-10-19T06:43:57;9.10;;;4.10;;
25946;SDS011;13745;51.470;9.894;2022-10-19T06:46:43;8.35;;;6.40;;
25946;SDS011;13745;51.470;9.894;2022-10-19T06:49:30;10.52;;;6.00;;
25946;SDS011;13745;51.470;9.894;2022-10-19T06:52:19;14.95;;;6.13;;
25946;SDS011;13745;51.470;9.894;2022-10-19T06:55:05;5.85;;;5.22;;
25946;SDS011;13745;51.470;9.894;2022-10-19T06:57:52;10.02;;;5.40;;
25946;SDS011;13745;51.470;9.894;2022-10-19T07:00:39;9.10;;;5.53;;
25946;SDS011;13745;51.470;9.894;2022-10-19T07:03:26;7.07;;;5.15;;
25946;SDS011;13745;51.470;9.894;2022-10-19T07:06:13;7.57;;;5.93;;
25946;SDS011;13745;51.470;9.894;2022-10-19T07:08:59;8.73;;;6.03;;
25946;SDS011;13745;51.470;9.894;2022-10-19T07:11:46;7.28;;;5.28;;
25946;SDS011;13745;51.470;9.894;2022-10-19T07:14:31;13.25;;;5.65;;
25946;SDS011;13745;51.470;9.894;2022-10-19T07:17:21;8.55;;;5.65;;
25946;SDS011;13745;51.470;9.894;2022-10-19T07:20:08;9.38;;;6.40;;
25946;SDS011;13745;51.470;9.894;2022-10-19T07:22:56;8.15;;;5.78;;
25946;SDS011;13745;51.470;9.894;2022-10-19T07:25:42;7.07;;;5.72;;
25946;SDS011;13745;51.470;9.894;2022-10-19T07:28:28;6.97;;;4.95;;
25946;SDS011;13745;51.470;9.894;2022-10-19T07:31:15;8.05;;;4.90;;
25946;SDS011;13745;51.470;9.894;2022-10-19T07:34:04;8.13;;;5.20;;
25946;SDS011;13745;51.470;9.894;2022-10-19T07:36:50;8.23;;;6.10;;
25946;SDS011;13745;51.470;9.894;2022-10-19T07:39:38;7.18;;;5.88;;
25946;SDS011;13745;51.470;9.894;2022-10-19T07:42:24;7.32;;;5.90;;
25946;SDS011;13745;51.470;9.894;2022-10-19T07:45:10;7.68;;;5.95;;
25946;SDS011;13745;51.470;9.894;2022-10-19T07:47:55;6.82;;;5.88;;
25946;SDS011;13745;51.470;9.894;2022-10-19T07:50:45;7.45;;;5.90;;
25946;SDS011;13745;51.470;9.894;2022-10-19T07:53:32;7.07;;;5.68;;
25946;SDS011;13745;51.470;9.894;2022-10-19T07:56:21;7.50;;;5.10;;
25946;SDS011;13745;51.470;9.894;2022-10-19T07:59:08;12.10;;;6.03;;
25946;SDS011;13745;51.470;9.894;2022-10-19T08:01:54;8.05;;;5.95;;
25946;SDS011;13745;51.470;9.894;2022-10-19T08:04:40;12.10;;;6.32;;
25946;SDS011;13745;51.470;9.894;2022-10-19T08:07:26;7.10;;;5.72;;
25946;SDS011;13745;51.470;9.894;2022-10-19T08:10:12;8.60;;;6.35;;
25946;SDS011;13745;51.470;9.894;2022-10-19T08:12:59;7.15;;;6.07;;
25946;SDS011;13745;51.470;9.894;2022-10-19T08:15:45;15.35;;;5.78;;
25946;SDS011;13745;51.470;9.894;2022-10-19T08:18:31;8.27;;;5.43;;
25946;SDS011;13745;51.470;9.894;2022-10-19T08:21:16;6.57;;;4.70;;
25946;SDS011;13745;51.470;9.894;2022-10-19T08:24:02;7.68;;;5.00;;
25946;SDS011;13745;51.470;9.894;2022-10-19T08:26:48;14.73;;;4.88;;
25946;SDS011;13745;51.470;9.894;2022-10-19T08:29:36;7.53;;;5.20;;
25946;SDS011;13745;51.470;9.894;2022-10-19T08:32:22;11.73;;;5.38;;
25946;SDS011;13745;51.470;9.894;2022-10-19T08:35:08;10.43;;;5.32;;
25946;SDS011;13745;51.470;9.894;2022-10-19T08:37:53;6.85;;;5.15;;
25946;SDS011;13745;51.470;9.894;2022-10-19T08:40:39;6.10;;;5.50;;
25946;SDS011;13745;51.470;9.894;2022-10-19T08:43:31;6.63;;;5.07;;
25946;SDS011;13745;51.470;9.894;2022-10-19T08:46:23;7.65;;;5.38;;
25946;SDS011;13745;51.470;9.894;2022-10-19T08:49:17;7.38;;;4.63;;
25946;SDS011;13745;51.470;9.894;2022-10-19T08:52:06;8.02;;;5.07;;
25946;SDS011;13745;51.470;9.894;2022-10-19T08:54:58;9.40;;;5.45;;
25946;SDS011;13745;51.470;9.894;2022-10-19T08:57:47;11.65;;;6.25;;
25946;SDS011;13745;51.470;9.894;2022-10-19T09:00:41;7.47;;;4.95;;
25946;SDS011;13745;51.470;9.894;2022-10-19T09:03:34;6.82;;;5.25;;
25946;SDS011;13745;51.470;9.894;2022-10-19T09:06:25;7.65;;;5.28;;
25946;SDS011;13745;51.470;9.894;2022-10-19T09:09:16;7.68;;;4.82;;
25946;SDS011;13745;51.470;9.894;2022-10-19T09:12:05;8.50;;;4.80;;
25946;SDS011;13745;51.470;9.894;2022-10-19T09:14:52;8.40;;;5.47;;
25946;SDS011;13745;51.470;9.894;2022-10-19T09:17:42;7.70;;;5.22;;
25946;SDS011;13745;51.470;9.894;2022-10-19T09:20:30;9.07;;;4.80;;
25946;SDS011;13745;51.470;9.894;2022-10-19T09:23:23;7.65;;;4.32;;
25946;SDS011;13745;51.470;9.894;2022-10-19T09:26:14;6.57;;;4.22;;
25946;SDS011;13745;51.470;9.894;2022-10-19T09:29:02;11.13;;;4.40;;
25946;SDS011;13745;51.470;9.894;2022-10-19T09:31:52;7.03;;;3.75;;
25946;SDS011;13745;51.470;9.894;2022-10-19T09:34:40;5.85;;;3.38;;
25946;SDS011;13745;51.470;9.894;2022-10-19T09:37:31;6.97;;;3.58;;
25946;SDS011;13745;51.470;9.894;2022-10-19T09:40:26;8.15;;;3.80;;
25946;SDS011;13745;51.470;9.894;2022-10-19T09:43:13;3.22;;;2.63;;
25946;SDS011;13745;51.470;9.894;2022-10-19T09:46:08;5.25;;;2.72;;
25946;SDS011;13745;51.470;9.894;2022-10-19T09:48:58;5.13;;;2.85;;
25946;SDS011;13745;51.470;9.894;2022-10-19T09:51:46;9.07;;;2.65;;
25946;SDS011;13745;51.470;9.894;2022-10-19T09:54:37;6.57;;;2.53;;
25946;SDS011;13745;51.470;9.894;2022-10-19T09:57:24;3.78;;;1.83;;
25946;SDS011;13745;51.470;9.894;2022-10-19T10:00:15;6.13;;;2.33;;
25946;SDS011;13745;51.470;9.894;2022-10-19T10:03:03;6.05;;;2.97;;
25946;SDS011;13745;51.470;9.894;2022-10-19T10:05:50;17.85;;;3.20;;
25946;SDS011;13745;51.470;9.894;2022-10-19T10:08:37;9.32;;;2.97;;
25946;SDS011;13745;51.470;9.894;2022-10-19T10:11:27;8.77;;;2.22;;
25946;SDS011;13745;51.470;9.894;2022-10-19T10:14:16;5.80;;;2.33;;
25946;SDS011;13745;51.470;9.894;2022-10-19T10:17:05;4.65;;;1.33;;
25946;SDS011;13745;51.470;9.894;2022-10-19T10:23:13;5.70;;;1.45;;
25946;SDS011;13745;51.470;9.894;2022-10-19T10:26:14;2.45;;;1.40;;
25946;SDS011;13745;51.470;9.894;2022-10-19T10:29:03;4.07;;;1.92;;
25946;SDS011;13745;51.470;9.894;2022-10-19T10:32:02;5.03;;;1.60;;
25946;SDS011;13745;51.470;9.894;2022-10-19T10:34:54;4.25;;;1.58;;
25946;SDS011;13745;51.470;9.894;2022-10-19T10:37:42;3.85;;;1.25;;
25946;SDS011;13745;51.470;9.894;2022-10-19T10:40:30;7.05;;;2.00;;
25946;SDS011;13745;51.470;9.894;2022-10-19T10:43:16;7.60;;;2.00;;
25946;SDS011;13745;51.470;9.894;2022-10-19T10:46:07;2.90;;;1.10;;
25946;SDS011;13745;51.470;9.894;2022-10-19T10:49:00;4.65;;;1.10;;
25946;SDS011;13745;51.470;9.894;2022-10-19T10:51:49;1.67;;;0.98;;
25946;SDS011;13745;51.470;9.894;2022-10-19T10:54:38;3.08;;;1.02;;
25946;SDS011;13745;51.470;9.894;2022-10-19T10:57:24;1.08;;;0.65;;
25946;SDS011;13745;51.470;9.894;2022-10-19T11:00:12;8.60;;;1.60;;
25946;SDS011;13745;51.470;9.894;2022-10-19T11:03:03;1.90;;;0.98;;
25946;SDS011;13745;51.470;9.894;2022-10-19T11:05:57;2.22;;;0.90;;
25946;SDS011;13745;51.470;9.894;2022-10-19T11:08:45;3.92;;;0.88;;
25946;SDS011;13745;51.470;9.894;2022-10-19T11:11:35;3.78;;;1.23;;
25946;SDS011;13745;51.470;9.894;2022-10-19T11:14:29;3.33;;;0.90;;
25946;SDS011;13745;51.470;9.894;2022-10-19T11:17:21;2.10;;;0.85;;
25946;SDS011;13745;51.470;9.894;2022-10-19T11:20:14;1.95;;;0.90;;
25946;SDS011;13745;51.470;9.894;2022-10-19T11:23:03;1.52;;;0.90;;
25946;SDS011;13745;51.470;9.894;2022-10-19T11:26:00;4.20;;;1.42;;
25946;SDS011;13745;51.470;9.894;2022-10-19T11:29:00;2.08;;;1.23;;
25946;SDS011;13745;51.470;9.894;2022-10-19T11:32:00;1.63;;;0.80;;
25946;SDS011;13745;51.470;9.894;2022-10-19T11:34:52;2.97;;;1.13;;
25946;SDS011;13745;51.470;9.894;2022-10-19T11:37:52;2.85;;;1.23;;
25946;SDS011;13745;51.470;9.894;2022-10-19T11:40:48;3.80;;;1.20;;
25946;SDS011;13745;51.470;9.894;2022-10-19T11:43:41;3.22;;;1.40;;
25946;SDS011;13745;51.470;9.894;2022-10-19T11:46:39;1.67;;;1.10;;
25946;SDS011;13745;51.470;9.894;2022-10-19T11:49:32;3.67;;;1.00;;
25946;SDS011;13745;51.470;9.894;2022-10-19T11:52:27;2.03;;;1.15;;
25946;SDS011;13745;51.470;9.894;2022-10-19T11:55:36;3.00;;;0.70;;
25946;SDS011;13745;51.470;9.894;2022-10-19T11:58:34;5.35;;;0.93;;
25946;SDS011;13745;51.470;9.894;2022-10-19T12:01:34;3.00;;;1.00;;
25946;SDS011;13745;51.470;9.894;2022-10-19T12:04:41;2.75;;;1.15;;
25946;SDS011;13745;51.470;9.894;2022-10-19T12:07:35;2.05;;;0.95;;
25946;SDS011;13745;51.470;9.894;2022-10-19T12:10:32;1.17;;;1.02;;
25946;SDS011;13745;51.470;9.894;2022-10-19T12:13:26;2.53;;;1.17;;
25946;SDS011;13745;51.470;9.894;2022-10-19T12:16:26;4.40;;;0.88;;
25946;SDS011;13745;51.470;9.894;2022-10-19T12:19:25;2.50;;;1.02;;
25946;SDS011;13745;51.470;9.894;2022-10-19T12:22:14;2.05;;;0.80;;
25946;SDS011;13745;51.470;9.894;2022-10-19T12:25:03;4.28;;;0.93;;
25946;SDS011;13745;51.470;9.894;2022-10-19T12:27:51;2.55;;;0.95;;
25946;SDS011;13745;51.470;9.894;2022-10-19T12:30:37;3.47;;;1.10;;
25946;SDS011;13745;51.470;9.894;2022-10-19T12:33:24;2.85;;;1.10;;
25946;SDS011;13745;51.470;9.894;2022-10-19T12:36:21;2.35;;;1.00;;
25946;SDS011;13745;51.470;9.894;2022-10-19T12:39:16;2.45;;;0.90;;
25946;SDS011;13745;51.470;9.894;2022-10-19T12:42:09;2.13;;;1.00;;
25946;SDS011;13745;51.470;9.894;2022-10-19T12:45:10;4.93;;;1.50;;
25946;SDS011;13745;51.470;9.894;2022-10-19T12:48:21;2.70;;;1.20;;
25946;SDS011;13745;51.470;9.894;2022-10-19T12:51:09;3.53;;;1.20;;
25946;SDS011;13745;51.470;9.894;2022-10-19T12:54:05;2.22;;;1.02;;
25946;SDS011;13745;51.470;9.894;2022-10-19T12:56:54;2.58;;;1.30;;
25946;SDS011;13745;51.470;9.894;2022-10-19T12:59:40;1.52;;;1.17;;
25946;SDS011;13745;51.470;9.894;2022-10-19T13:02:29;3.53;;;0.85;;
25946;SDS011;13745;51.470;9.894;2022-10-19T13:05:18;1.25;;;0.90;;
25946;SDS011;13745;51.470;9.894;2022-10-19T13:08:05;3.08;;;1.20;;
25946;SDS011;13745;51.470;9.894;2022-10-19T13:11:01;9.38;;;1.02;;
25946;SDS011;13745;51.470;9.894;2022-10-19T13:13:56;1.83;;;1.00;;
25946;SDS011;13745;51.470;9.894;2022-10-19T13:19:53;4.78;;;0.77;;
25946;SDS011;13745;51.470;9.894;2022-10-19T13:23:39;0.80;;;0.65;;
25946;SDS011;13745;51.470;9.894;2022-10-19T13:26:30;2.22;;;0.88;;
25946;SDS011;13745;51.470;9.894;2022-10-19T13:29:24;1.85;;;0.60;;
25946;SDS011;13745;51.470;9.894;2022-10-19T13:35:23;2.05;;;0.60;;
25946;SDS011;13745;51.470;9.894;2022-10-19T13:38:19;2.92;;;0.80;;
25946;SDS011;13745;51.470;9.894;2022-10-19T13:41:12;1.13;;;0.70;;
25946;SDS011;13745;51.470;9.894;2022-10-19T13:44:12;4.05;;;1.00;;
25946;SDS011;13745;51.470;9.894;2022-10-19T13:47:15;3.00;;;0.80;;
25946;SDS011;13745;51.470;9.894;2022-10-19T13:50:24;4.80;;;0.90;;
25946;SDS011;13745;51.470;9.894;2022-10-19T13:53:30;2.78;;;0.90;;
25946;SDS011;13745;51.470;9.894;2022-10-19T13:56:31;3.38;;;0.90;;
25946;SDS011;13745;51.470;9.894;2022-10-19T13:59:40;2.58;;;0.57;;
25946;SDS011;13745;51.470;9.894;2022-10-19T14:02:57;3.47;;;0.85;;
25946;SDS011;13745;51.470;9.894;2022-10-19T14:05:55;1.88;;;0.77;;
25946;SDS011;13745;51.470;9.894;2022-10-19T14:08:55;2.35;;;0.90;;
25946;SDS011;13745;51.470;9.894;2022-10-19T14:11:58;2.63;;;0.70;;
25946;SDS011;13745;51.470;9.894;2022-10-19T14:14:50;2.28;;;0.50;;
25946;SDS011;13745;51.470;9.894;2022-10-19T14:17:39;1.95;;;0.75;;
25946;SDS011;13745;51.470;9.894;2022-10-19T14:20:27;1.77;;;0.60;;
25946;SDS011;13745;51.470;9.894;2022-10-19T14:23:19;5.82;;;0.70;;
25946;SDS011;13745;51.470;9.894;2022-10-19T14:26:09;4.03;;;0.52;;
25946;SDS011;13745;51.470;9.894;2022-10-19T14:28:59;2.17;;;0.50;;
25946;SDS011;13745;51.470;9.894;2022-10-19T14:31:45;4.22;;;0.70;;
25946;SDS011;13745;51.470;9.894;2022-10-19T14:34:31;5.90;;;0.63;;
25946;SDS011;13745;51.470;9.894;2022-10-19T14:37:17;3.80;;;1.05;;
25946;SDS011;13745;51.470;9.894;2022-10-19T14:40:06;5.72;;;1.35;;
25946;SDS011;13745;51.470;9.894;2022-10-19T14:43:12;5.00;;;1.10;;
25946;SDS011;13745;51.470;9.894;2022-10-19T14:46:09;3.80;;;0.73;;
25946;SDS011;13745;51.470;9.894;2022-10-19T14:49:00;2.83;;;0.68;;
25946;SDS011;13745;51.470;9.894;2022-10-19T14:51:48;3.88;;;0.68;;
25946;SDS011;13745;51.470;9.894;2022-10-19T14:54:39;2.30;;;0.95;;
25946;SDS011;13745;51.470;9.894;2022-10-19T14:57:27;4.78;;;0.77;;
25946;SDS011;13745;51.470;9.894;2022-10-19T15:00:17;8.15;;;1.33;;
25946;SDS011;13745;51.470;9.894;2022-10-19T15:03:08;4.30;;;0.57;;
25946;SDS011;13745;51.470;9.894;2022-10-19T15:05:58;2.65;;;0.57;;
25946;SDS011;13745;51.470;9.894;2022-10-19T15:08:46;1.33;;;0.50;;
25946;SDS011;13745;51.470;9.894;2022-10-19T15:11:35;4.85;;;0.88;;
25946;SDS011;13745;51.470;9.894;2022-10-19T15:14:25;0.57;;;0.40;;
25946;SDS011;13745;51.470;9.894;2022-10-19T15:17:21;2.10;;;0.57;;
25946;SDS011;13745;51.470;9.894;2022-10-19T15:20:22;4.57;;;0.50;;
25946;SDS011;13745;51.470;9.894;2022-10-19T15:26:18;6.32;;;0.85;;
25946;SDS011;13745;51.470;9.894;2022-10-19T15:29:08;3.67;;;0.70;;
25946;SDS011;13745;51.470;9.894;2022-10-19T15:32:17;3.17;;;0.60;;
25946;SDS011;13745;51.470;9.894;2022-10-19T15:35:07;2.45;;;0.75;;
25946;SDS011;13745;51.470;9.894;2022-10-19T15:38:00;1.48;;;0.50;;
25946;SDS011;13745;51.470;9.894;2022-10-19T15:43:34;0.93;;;0.40;;
25946;SDS011;13745;51.470;9.894;2022-10-19T15:46:23;1.60;;;0.50;;
25946;SDS011;13745;51.470;9.894;2022-10-19T15:49:35;5.60;;;0.70;;
25946;SDS011;13745;51.470;9.894;2022-10-19T15:52:36;2.88;;;0.45;;
25946;SDS011;13745;51.470;9.894;2022-10-19T15:55:24;3.22;;;0.60;;
25946;SDS011;13745;51.470;9.894;2022-10-19T15:58:10;1.98;;;0.55;;
25946;SDS011;13745;51.470;9.894;2022-10-19T16:00:57;5.47;;;0.70;;
25946;SDS011;13745;51.470;9.894;2022-10-19T16:03:43;7.32;;;0.80;;
25946;SDS011;13745;51.470;9.894;2022-10-19T16:06:30;4.18;;;1.33;;
25946;SDS011;13745;51.470;9.894;2022-10-19T16:09:18;8.38;;;3.78;;
25946;SDS011;13745;51.470;9.894;2022-10-19T16:12:07;2.60;;;1.27;;
25946;SDS011;13745;51.470;9.894;2022-10-19T16:14:54;4.45;;;0.88;;
25946;SDS011;13745;51.470;9.894;2022-10-19T16:17:39;4.53;;;0.75;;
25946;SDS011;13745;51.470;9.894;2022-10-19T16:20:26;3.55;;;0.77;;
25946;SDS011;13745;51.470;9.894;2022-10-19T16:23:13;1.88;;;0.80;;
25946;SDS011;13745;51.470;9.894;2022-10-19T16:25:59;1.50;;;0.65;;
25946;SDS011;13745;51.470;9.894;2022-10-19T16:28:46;1.90;;;0.70;;
25946;SDS011;13745;51.470;9.894;2022-10-19T16:31:32;2.90;;;0.90;;
25946;SDS011;13745;51.470;9.894;2022-10-19T16:34:19;3.55;;;0.93;;
25946;SDS011;13745;51.470;9.894;2022-10-19T16:37:04;2.53;;;0.98;;
25946;SDS011;13745;51.470;9.894;2022-10-19T16:39:50;5.05;;;1.33;;
25946;SDS011;13745;51.470;9.894;2022-10-19T16:42:36;4.35;;;1.23;;
25946;SDS011;13745;51.470;9.894;2022-10-19T16:45:23;2.88;;;1.50;;
25946;SDS011;13745;51.470;9.894;2022-10-19T16:48:09;4.93;;;2.20;;
25946;SDS011;13745;51.470;9.894;2022-10-19T16:51:14;4.15;;;1.80;;
25946;SDS011;13745;51.470;9.894;2022-10-19T16:54:04;2.88;;;1.98;;
25946;SDS011;13745;51.470;9.894;2022-10-19T16:56:51;5.45;;;1.17;;
25946;SDS011;13745;51.470;9.894;2022-10-19T16:59:38;2.95;;;2.17;;
25946;SDS011;13745;51.470;9.894;2022-10-19T17:02:26;2.85;;;1.38;;
25946;SDS011;13745;51.470;9.894;2022-10-19T17:05:12;4.28;;;1.80;;
25946;SDS011;13745;51.470;9.894;2022-10-19T17:07:58;4.68;;;2.20;;
25946;SDS011;13745;51.470;9.894;2022-10-19T17:10:44;6.75;;;2.40;;
25946;SDS011;13745;51.470;9.894;2022-10-19T17:13:30;3.67;;;2.13;;
25946;SDS011;13745;51.470;9.894;2022-10-19T17:16:16;2.97;;;1.92;;
25946;SDS011;13745;51.470;9.894;2022-10-19T17:19:05;3.83;;;1.70;;
25946;SDS011;13745;51.470;9.894;2022-10-19T17:21:53;4.25;;;1.35;;